createdAt,value
2023-09-30T00:00:46.769Z,2.97
2023-09-30T00:01:50.955Z,3.70
2023-09-30T00:02:54.485Z,3.60
2023-09-30T00:03:58.284Z,2.55
2023-09-30T00:05:01.927Z,3.15
2023-09-30T00:06:05.341Z,2.40
2023-09-30T00:07:09.274Z,2.35
2023-09-30T00:08:12.612Z,3.13
2023-09-30T00:09:15.905Z,2.28
2023-09-30T00:10:19.155Z,2.90
2023-09-30T00:11:22.495Z,2.63
2023-09-30T00:12:25.803Z,4.22
2023-09-30T00:13:29.847Z,3.00
2023-09-30T00:14:33.645Z,3.10
2023-09-30T00:15:37.161Z,3.53
2023-09-30T00:16:40.696Z,3.15
2023-09-30T00:17:44.132Z,3.08
2023-09-30T00:18:47.761Z,2.33
2023-09-30T00:19:51.206Z,2.45
2023-09-30T00:20:54.561Z,3.83
2023-09-30T00:21:57.798Z,2.78
2023-09-30T00:23:00.996Z,2.28
2023-09-30T00:24:04.478Z,3.38
2023-09-30T00:25:08.430Z,4.60
2023-09-30T00:26:11.614Z,3.05
2023-09-30T00:27:17.015Z,3.75
2023-09-30T00:28:20.565Z,3.28
2023-09-30T00:29:23.789Z,4.43
2023-09-30T00:30:27.194Z,3.05
2023-09-30T00:31:30.687Z,2.83
2023-09-30T00:32:35.512Z,2.53
2023-09-30T00:33:39.882Z,3.75
2023-09-30T00:34:44.398Z,2.72
2023-09-30T00:35:47.710Z,3.33
2023-09-30T00:36:51.034Z,2.28
2023-09-30T00:37:54.687Z,2.88
2023-09-30T00:38:59.682Z,2.90
2023-09-30T00:40:04.060Z,3.42
2023-09-30T00:41:11.169Z,2.50
2023-09-30T00:42:14.440Z,4.15
2023-09-30T00:43:21.780Z,3.85
2023-09-30T00:45:29.274Z,3.08
2023-09-30T00:46:38.983Z,3.08
2023-09-30T00:47:42.541Z,4.18
2023-09-30T00:48:47.278Z,4.72
2023-09-30T00:49:51.773Z,5.05
2023-09-30T00:50:55.082Z,2.67
2023-09-30T00:51:58.469Z,4.18
2023-09-30T00:53:01.744Z,3.72
2023-09-30T00:54:05.393Z,4.25
2023-09-30T00:55:10.104Z,2.85
2023-09-30T00:56:14.158Z,4.18
2023-09-30T00:57:20.102Z,3.40
2023-09-30T00:58:25.102Z,4.47
2023-09-30T00:59:28.590Z,4.00
2023-09-30T01:00:32.589Z,3.13
2023-09-30T01:01:36.233Z,2.65
2023-09-30T01:02:43.276Z,3.00
2023-09-30T01:03:48.036Z,4.00
2023-09-30T01:04:51.807Z,2.70
2023-09-30T01:05:55.600Z,2.67
2023-09-30T01:06:58.991Z,3.00
2023-09-30T01:08:04.541Z,3.13
2023-09-30T01:09:08.958Z,3.25
2023-09-30T01:10:12.300Z,2.67
2023-09-30T01:11:16.898Z,4.95
2023-09-30T01:12:20.622Z,3.35
2023-09-30T01:13:23.843Z,3.15
2023-09-30T01:14:40.049Z,3.13
2023-09-30T01:15:43.325Z,2.97
2023-09-30T01:16:46.787Z,3.67
2023-09-30T01:17:50.153Z,2.95
2023-09-30T01:18:53.478Z,2.90
2023-09-30T01:20:02.413Z,3.33
2023-09-30T01:21:08.621Z,3.00
2023-09-30T01:22:12.599Z,2.78
2023-09-30T01:23:15.960Z,3.67
2023-09-30T01:24:19.123Z,4.05
2023-09-30T01:25:23.039Z,3.15
2023-09-30T01:26:26.219Z,5.10
2023-09-30T01:27:29.933Z,4.05
2023-09-30T01:28:33.373Z,3.00
2023-09-30T01:29:39.854Z,2.60
2023-09-30T01:30:46.107Z,2.45
2023-09-30T01:31:51.278Z,3.08
2023-09-30T01:32:54.967Z,3.53
2023-09-30T01:34:00.794Z,2.60
2023-09-30T01:35:04.345Z,2.95
2023-09-30T01:36:08.433Z,2.60
2023-09-30T01:37:12.959Z,3.13
2023-09-30T01:38:16.290Z,3.25
2023-09-30T01:39:19.476Z,2.83
2023-09-30T01:40:22.852Z,4.88
2023-09-30T01:41:26.014Z,2.72
2023-09-30T01:42:29.453Z,3.58
2023-09-30T01:43:32.916Z,4.00
2023-09-30T01:44:36.194Z,2.63
2023-09-30T01:45:39.497Z,3.20
2023-09-30T01:46:42.874Z,5.20
2023-09-30T01:47:46.244Z,3.30
2023-09-30T01:48:49.620Z,4.47
2023-09-30T01:49:52.839Z,3.80
2023-09-30T01:50:56.233Z,2.72
2023-09-30T01:51:59.472Z,4.15
2023-09-30T01:53:02.720Z,3.92
2023-09-30T01:54:06.256Z,3.78
2023-09-30T01:55:09.957Z,2.65
2023-09-30T01:56:13.428Z,3.75
2023-09-30T01:57:17.041Z,4.07
2023-09-30T01:58:20.583Z,4.82
2023-09-30T01:59:24.346Z,3.15
2023-09-30T02:00:29.610Z,2.83
2023-09-30T02:01:34.367Z,4.47
2023-09-30T02:02:40.963Z,4.65
2023-09-30T02:03:44.643Z,4.15
2023-09-30T02:04:48.148Z,3.75
2023-09-30T02:05:51.959Z,3.78
2023-09-30T02:06:55.547Z,3.55
2023-09-30T02:07:59.160Z,4.43
2023-09-30T02:09:04.751Z,4.38
2023-09-30T02:10:08.961Z,2.53
2023-09-30T02:11:15.186Z,3.60
2023-09-30T02:12:20.798Z,3.22
2023-09-30T02:13:24.359Z,3.22
2023-09-30T02:14:28.071Z,3.45
2023-09-30T02:15:31.567Z,3.58
2023-09-30T02:16:35.684Z,4.18
2023-09-30T02:17:40.240Z,5.10
2023-09-30T02:18:52.132Z,3.30
2023-09-30T02:19:56.347Z,3.05
2023-09-30T02:21:19.879Z,3.38
2023-09-30T02:22:24.939Z,6.55
2023-09-30T02:23:28.458Z,3.17
2023-09-30T02:24:32.027Z,3.85
2023-09-30T02:25:35.491Z,4.55
2023-09-30T02:26:40.464Z,3.17
2023-09-30T02:27:44.315Z,4.50
2023-09-30T02:28:48.100Z,3.72
2023-09-30T02:29:51.649Z,5.20
2023-09-30T02:30:55.217Z,4.47
2023-09-30T02:31:59.046Z,3.28
2023-09-30T02:33:03.005Z,4.70
2023-09-30T02:34:06.373Z,3.63
2023-09-30T02:35:13.778Z,5.75
2023-09-30T02:37:20.669Z,2.90
2023-09-30T02:38:24.321Z,4.30
2023-09-30T02:39:27.999Z,4.97
2023-09-30T02:40:31.693Z,3.60
2023-09-30T02:41:35.175Z,3.47
2023-09-30T02:42:40.072Z,2.65
2023-09-30T02:43:43.603Z,3.70
2023-09-30T02:44:47.232Z,2.72
2023-09-30T02:45:51.699Z,3.05
2023-09-30T02:46:55.810Z,3.33
2023-09-30T02:47:59.862Z,3.95
2023-09-30T02:49:04.061Z,3.90
2023-09-30T02:50:09.964Z,3.03
2023-09-30T02:51:13.600Z,3.22
2023-09-30T02:52:17.049Z,3.42
2023-09-30T02:53:20.649Z,3.88
2023-09-30T02:54:24.229Z,3.80
2023-09-30T02:55:27.812Z,3.13
2023-09-30T02:56:31.800Z,3.85
2023-09-30T02:57:37.010Z,4.82
2023-09-30T02:58:41.830Z,3.78
2023-09-30T02:59:45.940Z,4.55
2023-09-30T03:00:50.886Z,4.18
2023-09-30T03:01:54.685Z,4.70
2023-09-30T03:02:58.643Z,4.72
2023-09-30T03:04:02.247Z,3.45
2023-09-30T03:05:06.084Z,3.95
2023-09-30T03:06:10.192Z,3.10
2023-09-30T03:07:15.061Z,6.43
2023-09-30T03:08:19.124Z,4.20
2023-09-30T03:09:22.716Z,6.00
2023-09-30T03:10:26.298Z,5.00
2023-09-30T03:11:31.143Z,3.72
2023-09-30T03:12:35.114Z,3.88
2023-09-30T03:13:38.862Z,3.95
2023-09-30T03:14:42.627Z,5.72
2023-09-30T03:15:46.326Z,4.60
2023-09-30T03:16:50.411Z,4.55
2023-09-30T03:17:54.581Z,2.97
2023-09-30T03:18:58.112Z,3.88
2023-09-30T03:20:03.027Z,3.13
2023-09-30T03:21:16.335Z,3.45
2023-09-30T03:22:20.513Z,3.92
2023-09-30T03:23:30.421Z,3.50
2023-09-30T03:24:34.071Z,3.25
2023-09-30T03:25:37.807Z,2.95
2023-09-30T03:26:43.021Z,3.53
2023-09-30T03:27:50.258Z,3.13
2023-09-30T03:28:55.077Z,4.07
2023-09-30T03:29:58.581Z,4.18
2023-09-30T03:31:02.163Z,2.88
2023-09-30T03:32:05.865Z,4.28
2023-09-30T03:33:09.907Z,2.65
2023-09-30T03:34:15.427Z,4.22
2023-09-30T03:35:19.384Z,3.60
2023-09-30T03:36:26.022Z,2.97
2023-09-30T03:37:30.227Z,2.75
2023-09-30T03:38:33.878Z,2.60
2023-09-30T03:39:37.443Z,3.10
2023-09-30T03:40:50.413Z,3.10
2023-09-30T03:41:59.714Z,3.20
2023-09-30T03:43:03.280Z,3.88
2023-09-30T03:44:07.504Z,4.63
2023-09-30T03:45:12.297Z,3.13
2023-09-30T03:46:16.205Z,3.50
2023-09-30T03:47:20.370Z,3.28
2023-09-30T03:48:24.078Z,3.67
2023-09-30T03:49:29.670Z,3.30
2023-09-30T03:50:33.202Z,3.38
2023-09-30T03:51:38.597Z,2.80
2023-09-30T03:52:46.540Z,3.70
2023-09-30T03:53:53.777Z,3.42
2023-09-30T03:54:57.173Z,3.95
2023-09-30T03:56:01.360Z,2.97
2023-09-30T03:57:05.156Z,3.20
2023-09-30T03:58:08.549Z,4.13
2023-09-30T03:59:11.703Z,3.33
2023-09-30T04:00:21.406Z,2.85
2023-09-30T04:01:25.916Z,2.83
2023-09-30T04:02:29.199Z,4.38
2023-09-30T04:03:36.292Z,3.90
2023-09-30T04:05:43.232Z,2.97
2023-09-30T04:06:48.022Z,3.05
2023-09-30T04:07:52.293Z,4.22
2023-09-30T04:08:55.668Z,2.78
2023-09-30T04:10:02.708Z,2.67
2023-09-30T04:11:09.314Z,4.13
2023-09-30T04:12:16.085Z,3.42
2023-09-30T04:13:20.874Z,3.15
2023-09-30T04:14:24.071Z,4.75
2023-09-30T04:15:27.430Z,3.38
2023-09-30T04:16:31.725Z,3.25
2023-09-30T04:17:35.115Z,3.42
2023-09-30T04:18:38.251Z,2.55
2023-09-30T04:19:41.531Z,3.35
2023-09-30T04:20:46.396Z,3.03
2023-09-30T04:21:49.670Z,3.03
2023-09-30T04:22:56.738Z,3.10
2023-09-30T04:24:00.364Z,3.97
2023-09-30T04:25:09.800Z,4.18
2023-09-30T04:26:13.359Z,3.00
2023-09-30T04:27:16.999Z,4.00
2023-09-30T04:28:21.984Z,3.30
2023-09-30T04:29:25.233Z,3.42
2023-09-30T04:30:29.085Z,3.72
2023-09-30T04:31:32.498Z,2.67
2023-09-30T04:32:38.346Z,3.58
2023-09-30T04:33:41.653Z,4.78
2023-09-30T04:34:47.059Z,3.53
2023-09-30T04:35:50.413Z,2.95
2023-09-30T04:36:53.786Z,3.35
2023-09-30T04:37:57.028Z,4.10
2023-09-30T04:39:02.406Z,2.78
2023-09-30T04:40:17.357Z,3.63
2023-09-30T04:41:20.760Z,2.65
2023-09-30T04:42:26.754Z,7.20
2023-09-30T04:43:30.580Z,3.85
2023-09-30T04:44:58.642Z,3.72
2023-09-30T04:47:50.843Z,3.58
2023-09-30T04:48:54.653Z,4.93
2023-09-30T04:49:59.638Z,3.88
2023-09-30T04:51:06.210Z,2.92
2023-09-30T04:52:09.536Z,3.45
2023-09-30T04:53:14.255Z,5.18
2023-09-30T04:54:17.436Z,4.45
2023-09-30T04:55:21.103Z,2.95
2023-09-30T04:56:24.643Z,3.55
2023-09-30T04:57:28.857Z,2.97
2023-09-30T04:58:32.704Z,3.95
2023-09-30T04:59:35.952Z,3.63
2023-09-30T05:00:39.593Z,2.80
2023-09-30T05:01:42.841Z,3.95
2023-09-30T05:02:47.314Z,4.07
2023-09-30T05:03:51.075Z,3.47
2023-09-30T05:04:54.723Z,2.90
2023-09-30T05:05:59.633Z,4.22
2023-09-30T05:07:02.905Z,2.92
2023-09-30T05:08:07.513Z,3.60
2023-09-30T05:09:11.640Z,3.30
2023-09-30T05:10:17.349Z,3.55
2023-09-30T05:11:20.473Z,3.08
2023-09-30T05:12:23.802Z,3.78
2023-09-30T05:13:27.039Z,3.33
2023-09-30T05:14:30.427Z,3.20
2023-09-30T05:15:36.867Z,3.03
2023-09-30T05:16:40.526Z,3.20
2023-09-30T05:17:48.102Z,3.33
2023-09-30T05:18:52.460Z,2.78
2023-09-30T05:19:57.338Z,4.13
2023-09-30T05:21:01.624Z,2.50
2023-09-30T05:22:04.959Z,3.35
2023-09-30T05:23:14.202Z,4.35
2023-09-30T05:24:20.474Z,3.42
2023-09-30T05:25:27.815Z,2.83
2023-09-30T05:26:31.040Z,3.67
2023-09-30T05:27:34.455Z,4.07
2023-09-30T05:28:37.641Z,3.13
2023-09-30T05:29:40.866Z,3.30
2023-09-30T05:30:45.140Z,2.70
2023-09-30T05:31:48.491Z,4.15
2023-09-30T05:32:54.016Z,2.72
2023-09-30T05:33:57.884Z,3.53
2023-09-30T05:35:04.394Z,3.65
2023-09-30T05:36:07.970Z,3.25
2023-09-30T05:37:11.206Z,4.95
2023-09-30T05:38:14.766Z,3.13
2023-09-30T05:39:21.288Z,3.53
2023-09-30T05:40:26.446Z,2.90
2023-09-30T05:41:29.599Z,3.22
2023-09-30T05:42:33.006Z,4.45
2023-09-30T05:43:36.186Z,2.85
2023-09-30T05:44:39.514Z,3.70
2023-09-30T05:45:51.024Z,3.85
2023-09-30T05:46:56.136Z,3.05
2023-09-30T05:48:03.918Z,3.22
2023-09-30T05:49:12.790Z,3.22
2023-09-30T05:50:18.908Z,3.38
2023-09-30T05:51:22.201Z,2.28
2023-09-30T05:52:25.347Z,3.63
2023-09-30T05:53:29.933Z,4.43
2023-09-30T05:54:33.261Z,3.25
2023-09-30T05:55:36.541Z,4.95
2023-09-30T05:56:40.330Z,3.72
2023-09-30T05:57:44.197Z,3.05
2023-09-30T05:58:48.227Z,2.50
2023-09-30T05:59:51.859Z,2.55
2023-09-30T06:00:55.870Z,3.85
2023-09-30T06:01:59.548Z,4.13
2023-09-30T06:03:05.666Z,3.88
2023-09-30T06:04:09.390Z,4.28
2023-09-30T06:05:12.861Z,3.08
2023-09-30T06:06:19.867Z,3.72
2023-09-30T06:07:23.882Z,3.50
2023-09-30T06:08:27.370Z,2.67
2023-09-30T06:09:32.080Z,3.20
2023-09-30T06:10:36.789Z,2.63
2023-09-30T06:11:41.369Z,3.35
2023-09-30T06:12:44.902Z,3.15
2023-09-30T06:13:48.356Z,3.47
2023-09-30T06:14:54.521Z,2.97
2023-09-30T06:15:58.103Z,3.72
2023-09-30T06:17:01.857Z,2.92
2023-09-30T06:18:05.795Z,3.05
2023-09-30T06:19:10.767Z,3.50
2023-09-30T06:20:19.202Z,4.00
2023-09-30T06:21:23.413Z,3.83
2023-09-30T06:22:29.216Z,3.20
2023-09-30T06:23:33.282Z,4.15
2023-09-30T06:24:36.738Z,3.65
2023-09-30T06:25:41.476Z,2.97
2023-09-30T06:26:45.061Z,3.17
2023-09-30T06:27:49.869Z,3.35
2023-09-30T06:28:55.757Z,3.22
2023-09-30T06:29:59.611Z,3.30
2023-09-30T06:31:04.280Z,2.92
2023-09-30T06:32:08.640Z,3.10
2023-09-30T06:33:14.629Z,4.18
2023-09-30T06:34:18.346Z,3.30
2023-09-30T06:35:23.374Z,3.00
2023-09-30T06:36:27.712Z,2.75
2023-09-30T06:37:31.261Z,3.15
2023-09-30T06:38:34.820Z,3.17
2023-09-30T06:39:38.428Z,3.20
2023-09-30T06:40:44.167Z,3.05
2023-09-30T06:41:47.884Z,2.97
2023-09-30T06:42:51.530Z,3.03
2023-09-30T06:43:55.022Z,2.28
2023-09-30T06:44:58.897Z,2.95
2023-09-30T06:46:10.799Z,3.80
2023-09-30T06:47:14.630Z,3.85
2023-09-30T06:48:18.382Z,3.03
2023-09-30T06:49:22.189Z,4.75
2023-09-30T06:50:25.763Z,5.65
2023-09-30T06:51:29.352Z,6.18
2023-09-30T06:52:32.927Z,5.55
2023-09-30T06:53:36.674Z,7.53
2023-09-30T06:54:40.306Z,6.20
2023-09-30T06:55:44.855Z,7.80
2023-09-30T06:56:48.313Z,6.30
2023-09-30T06:57:52.489Z,11.38
2023-09-30T06:58:56.142Z,7.15
2023-09-30T06:59:59.830Z,8.98
2023-09-30T07:01:03.366Z,10.43
2023-09-30T07:02:07.076Z,10.95
2023-09-30T07:03:11.040Z,10.85
2023-09-30T07:04:14.825Z,11.00
2023-09-30T07:05:19.115Z,12.32
2023-09-30T07:06:26.466Z,13.73
2023-09-30T07:07:30.372Z,24.02
2023-09-30T07:08:34.076Z,28.77
2023-09-30T07:09:37.891Z,31.35
2023-09-30T07:10:41.420Z,32.15
2023-09-30T07:11:45.733Z,35.78
2023-09-30T07:12:49.451Z,39.88
2023-09-30T07:13:53.016Z,42.13
2023-09-30T07:14:56.628Z,41.22
2023-09-30T07:16:00.211Z,39.80
2023-09-30T07:17:05.944Z,39.63
2023-09-30T07:18:10.170Z,37.67
2023-09-30T07:19:13.953Z,40.20
2023-09-30T07:20:18.350Z,39.95
2023-09-30T07:21:22.397Z,37.53
2023-09-30T07:22:34.965Z,39.83
2023-09-30T07:23:47.555Z,38.08
2023-09-30T07:24:51.215Z,36.03
2023-09-30T07:25:54.827Z,38.83
2023-09-30T07:26:58.322Z,37.50
2023-09-30T07:28:03.122Z,36.03
2023-09-30T07:29:06.698Z,38.33
2023-09-30T07:30:13.436Z,34.80
2023-09-30T07:31:17.034Z,36.17
2023-09-30T07:32:20.772Z,37.85
2023-09-30T07:33:24.373Z,36.47
2023-09-30T07:34:28.167Z,35.50
2023-09-30T07:35:31.721Z,34.75
2023-09-30T07:36:35.278Z,34.17
2023-09-30T07:37:38.782Z,34.63
2023-09-30T07:38:42.376Z,34.40
2023-09-30T07:39:46.908Z,35.75
2023-09-30T07:40:50.521Z,35.83
2023-09-30T07:41:53.942Z,35.55
2023-09-30T07:42:59.209Z,34.65
2023-09-30T07:44:02.707Z,30.33
2023-09-30T07:45:07.018Z,33.83
2023-09-30T07:46:10.960Z,32.80
2023-09-30T07:47:16.172Z,30.55
2023-09-30T07:48:19.884Z,31.40
2023-09-30T07:49:23.710Z,31.88
2023-09-30T07:50:27.504Z,30.98
2023-09-30T07:51:33.875Z,31.20
2023-09-30T07:52:37.969Z,30.55
2023-09-30T07:53:42.037Z,29.60
2023-09-30T07:54:45.613Z,29.60
2023-09-30T07:55:49.742Z,29.38
2023-09-30T07:56:53.021Z,27.90
2023-09-30T07:57:58.986Z,29.83
2023-09-30T07:59:03.304Z,26.15
2023-09-30T08:00:11.334Z,28.77
2023-09-30T08:01:14.505Z,26.80
2023-09-30T08:02:19.159Z,29.50
2023-09-30T08:03:22.537Z,28.67
2023-09-30T08:04:26.556Z,28.95
2023-09-30T08:05:29.862Z,27.67
2023-09-30T08:06:33.200Z,27.55
2023-09-30T08:07:36.551Z,27.58
2023-09-30T08:08:39.927Z,25.88
2023-09-30T08:09:43.272Z,28.42
2023-09-30T08:10:46.639Z,28.45
2023-09-30T08:11:49.863Z,26.90
2023-09-30T08:12:53.172Z,25.40
2023-09-30T08:13:56.394Z,27.15
2023-09-30T08:14:59.914Z,27.75
2023-09-30T08:16:03.319Z,24.90
2023-09-30T08:17:06.783Z,25.58
2023-09-30T08:18:10.107Z,23.45
2023-09-30T08:19:13.694Z,26.08
2023-09-30T08:20:17.081Z,24.65
2023-09-30T08:21:20.638Z,26.73
2023-09-30T08:22:29.340Z,24.02
2023-09-30T08:23:33.960Z,23.98
2023-09-30T08:24:37.489Z,24.35
2023-09-30T08:25:40.932Z,24.40
2023-09-30T08:26:44.585Z,22.08
2023-09-30T08:27:51.252Z,22.95
2023-09-30T08:28:54.666Z,24.65
2023-09-30T08:29:58.033Z,24.02
2023-09-30T08:31:06.140Z,24.38
2023-09-30T08:32:09.533Z,22.33
2023-09-30T08:33:12.851Z,22.77
2023-09-30T08:34:16.234Z,21.75
2023-09-30T08:35:19.500Z,23.20
2023-09-30T08:36:22.789Z,23.65
2023-09-30T08:37:25.985Z,21.98
2023-09-30T08:38:29.463Z,21.17
2023-09-30T08:39:32.868Z,22.23
2023-09-30T08:40:36.361Z,20.30
2023-09-30T08:41:40.072Z,22.50
2023-09-30T08:42:43.543Z,20.45
2023-09-30T08:43:47.926Z,21.27
2023-09-30T08:44:55.675Z,22.70
2023-09-30T08:46:00.864Z,22.92
2023-09-30T08:47:04.692Z,19.15
2023-09-30T08:48:08.471Z,20.90
2023-09-30T08:49:13.445Z,21.52
2023-09-30T08:50:18.070Z,23.55
2023-09-30T08:51:21.969Z,21.60
2023-09-30T08:52:26.201Z,21.20
2023-09-30T08:53:32.813Z,19.75
2023-09-30T08:54:36.077Z,18.23
2023-09-30T08:55:41.173Z,21.70
2023-09-30T08:56:49.799Z,22.83
2023-09-30T08:57:53.681Z,19.58
2023-09-30T08:59:02.369Z,20.08
2023-09-30T09:00:07.914Z,19.40
2023-09-30T09:01:12.890Z,19.65
2023-09-30T09:02:16.611Z,19.40
2023-09-30T09:03:21.824Z,19.92
2023-09-30T09:04:26.147Z,18.58
2023-09-30T09:05:29.910Z,21.52
2023-09-30T09:06:33.990Z,20.30
2023-09-30T09:07:37.548Z,21.38
2023-09-30T09:08:42.547Z,18.75
2023-09-30T09:10:09.372Z,19.00
2023-09-30T09:11:13.006Z,17.05
2023-09-30T09:12:22.329Z,17.05
2023-09-30T09:13:27.088Z,17.98
2023-09-30T09:14:40.857Z,16.40
2023-09-30T09:15:44.828Z,18.50
2023-09-30T09:16:57.206Z,19.50
2023-09-30T09:18:00.946Z,17.50
2023-09-30T09:19:16.872Z,18.52
2023-09-30T09:20:22.734Z,18.48
2023-09-30T09:21:32.257Z,19.13
2023-09-30T09:22:45.761Z,18.55
2023-09-30T09:23:59.895Z,16.90
2023-09-30T09:25:04.164Z,19.00
2023-09-30T09:26:12.635Z,17.85
2023-09-30T09:27:21.189Z,19.17
2023-09-30T09:28:36.633Z,16.08
2023-09-30T09:29:41.356Z,17.15
2023-09-30T09:30:45.267Z,16.95
2023-09-30T09:31:49.005Z,16.35
2023-09-30T09:32:57.051Z,18.27
2023-09-30T09:34:01.433Z,16.48
2023-09-30T09:35:05.398Z,17.52
2023-09-30T09:36:09.251Z,15.13
2023-09-30T09:37:22.137Z,17.23
2023-09-30T09:38:25.847Z,16.05
2023-09-30T09:39:32.687Z,15.27
2023-09-30T09:40:42.164Z,15.38
2023-09-30T09:41:55.980Z,15.88
2023-09-30T09:43:01.554Z,17.05
2023-09-30T09:44:08.096Z,17.10
2023-09-30T09:45:12.400Z,15.95
2023-09-30T09:46:15.993Z,15.48
2023-09-30T09:47:21.767Z,16.70
2023-09-30T09:48:25.739Z,16.50
2023-09-30T09:49:30.546Z,16.10
2023-09-30T09:50:35.505Z,15.02
2023-09-30T09:51:40.056Z,16.55
2023-09-30T09:52:44.582Z,17.20
2023-09-30T09:53:50.650Z,16.80
2023-09-30T09:54:54.242Z,16.92
2023-09-30T09:56:02.012Z,14.88
2023-09-30T09:57:08.325Z,14.20
2023-09-30T09:58:12.009Z,14.65
2023-09-30T09:59:15.719Z,14.82
2023-09-30T10:00:28.873Z,14.77
2023-09-30T10:01:56.695Z,13.73
2023-09-30T10:03:00.635Z,14.10
2023-09-30T10:04:04.047Z,15.15
2023-09-30T10:05:08.443Z,15.38
2023-09-30T10:06:11.858Z,16.48
2023-09-30T10:07:29.572Z,15.27
2023-09-30T10:08:38.045Z,13.98
2023-09-30T10:09:45.273Z,14.48
2023-09-30T10:10:49.368Z,13.63
2023-09-30T10:12:02.493Z,13.80
2023-09-30T10:13:07.244Z,13.85
2023-09-30T10:14:31.607Z,14.15
2023-09-30T10:15:36.150Z,14.00
2023-09-30T10:16:39.709Z,12.82
2023-09-30T10:18:04.799Z,13.30
2023-09-30T10:19:19.357Z,13.50
2023-09-30T10:20:29.650Z,13.48
2023-09-30T10:22:26.249Z,13.70
2023-09-30T10:23:36.854Z,13.20
2023-09-30T10:24:40.314Z,14.45
2023-09-30T10:25:48.773Z,13.80
2023-09-30T10:27:23.995Z,14.07
2023-09-30T10:28:46.265Z,13.18
2023-09-30T10:29:56.027Z,12.75
2023-09-30T10:31:23.008Z,14.23
2023-09-30T10:32:52.740Z,12.95
2023-09-30T10:34:02.142Z,12.07
2023-09-30T10:35:07.724Z,13.43
2023-09-30T10:36:10.879Z,13.20
2023-09-30T10:37:26.480Z,12.25
2023-09-30T10:38:39.557Z,12.82
2023-09-30T10:40:04.655Z,11.50
2023-09-30T10:41:09.968Z,13.07
2023-09-30T10:42:46.237Z,11.98
2023-09-30T10:43:49.427Z,13.70
2023-09-30T10:44:52.860Z,11.98
2023-09-30T10:45:56.474Z,12.02
2023-09-30T10:47:22.878Z,12.23
2023-09-30T10:48:42.767Z,12.38
2023-09-30T10:49:46.840Z,11.77
2023-09-30T10:50:54.411Z,12.70
2023-09-30T10:52:01.223Z,12.40
2023-09-30T10:53:06.641Z,11.38
2023-09-30T10:54:10.133Z,12.82
2023-09-30T10:55:19.032Z,11.50
2023-09-30T10:56:25.309Z,11.25
2023-09-30T10:57:29.700Z,12.13
2023-09-30T10:58:44.241Z,12.20
2023-09-30T10:59:47.731Z,10.85
2023-09-30T11:00:55.919Z,12.38
2023-09-30T11:02:00.487Z,13.15
2023-09-30T11:03:04.964Z,11.90
2023-09-30T11:04:10.235Z,11.38
2023-09-30T11:05:15.177Z,10.60
2023-09-30T11:06:22.669Z,9.75
2023-09-30T11:07:31.076Z,10.95
2023-09-30T11:08:36.026Z,11.20
2023-09-30T11:09:41.466Z,10.40
2023-09-30T11:10:54.618Z,10.38
2023-09-30T11:11:58.508Z,10.18
2023-09-30T11:13:02.152Z,11.02
2023-09-30T11:14:24.801Z,11.07
2023-09-30T11:15:30.606Z,9.93
2023-09-30T11:16:47.162Z,9.95
2023-09-30T11:17:57.610Z,10.35
2023-09-30T11:19:01.413Z,9.82
2023-09-30T11:20:07.899Z,9.40
2023-09-30T11:21:14.550Z,9.38
2023-09-30T11:22:18.695Z,9.55
2023-09-30T11:23:22.457Z,9.63
2023-09-30T11:24:26.674Z,9.40
2023-09-30T11:25:35.977Z,10.23
2023-09-30T11:26:42.597Z,8.88
2023-09-30T11:27:47.597Z,9.32
2023-09-30T11:28:51.369Z,10.25
2023-09-30T11:29:54.985Z,8.50
2023-09-30T11:31:03.714Z,8.90
2023-09-30T11:32:07.573Z,8.55
2023-09-30T11:33:12.596Z,9.00
2023-09-30T11:34:20.362Z,8.55
2023-09-30T11:35:26.795Z,8.40
2023-09-30T11:36:32.359Z,8.55
2023-09-30T11:37:35.999Z,9.05
2023-09-30T11:38:49.064Z,8.80
2023-09-30T11:39:55.839Z,8.20
2023-09-30T11:41:08.360Z,8.20
2023-09-30T11:42:19.304Z,9.40
2023-09-30T11:43:24.702Z,8.82
2023-09-30T11:44:28.510Z,7.70
2023-09-30T11:45:32.895Z,8.30
2023-09-30T11:47:00.789Z,7.68
2023-09-30T11:48:22.476Z,7.53
2023-09-30T11:49:41.854Z,7.80
2023-09-30T11:50:49.842Z,7.60
2023-09-30T11:51:53.957Z,7.72
2023-09-30T11:52:57.642Z,8.25
2023-09-30T11:54:03.395Z,8.13
2023-09-30T11:55:07.542Z,7.78
2023-09-30T11:56:12.202Z,7.88
2023-09-30T11:57:17.471Z,7.82
2023-09-30T11:58:21.201Z,7.57
2023-09-30T11:59:24.828Z,6.57
2023-09-30T12:00:28.413Z,7.18
2023-09-30T12:01:35.197Z,6.65
2023-09-30T12:02:41.858Z,8.13
2023-09-30T12:03:45.589Z,7.50
2023-09-30T12:04:49.591Z,6.80
2023-09-30T12:05:53.832Z,6.55
2023-09-30T12:06:58.615Z,6.53
2023-09-30T12:08:02.338Z,7.18
2023-09-30T12:09:05.985Z,7.65
2023-09-30T12:10:15.282Z,7.35
2023-09-30T12:11:19.862Z,7.22
2023-09-30T12:12:23.721Z,6.82
2023-09-30T12:13:27.713Z,7.03
2023-09-30T12:14:32.503Z,6.90
2023-09-30T12:15:38.445Z,6.88
2023-09-30T12:16:42.876Z,6.43
2023-09-30T12:17:48.991Z,7.03
2023-09-30T12:18:52.755Z,6.78
2023-09-30T12:19:56.348Z,6.00
2023-09-30T12:21:00.322Z,7.40
2023-09-30T12:22:07.856Z,7.32
2023-09-30T12:23:11.891Z,6.38
2023-09-30T12:24:18.302Z,5.80
2023-09-30T12:25:23.147Z,6.80
2023-09-30T12:26:27.405Z,7.63
2023-09-30T12:27:31.033Z,5.63
2023-09-30T12:28:35.781Z,6.32
2023-09-30T12:29:40.229Z,5.93
2023-09-30T12:30:44.776Z,7.35
2023-09-30T12:31:53.675Z,6.30
2023-09-30T12:32:58.134Z,6.10
2023-09-30T12:34:01.889Z,6.40
2023-09-30T12:35:06.147Z,7.07
2023-09-30T12:36:09.942Z,5.90
2023-09-30T12:37:14.817Z,6.50
2023-09-30T12:38:18.758Z,6.05
2023-09-30T12:39:26.163Z,5.70
2023-09-30T12:40:31.227Z,6.10
2023-09-30T12:41:34.784Z,5.70
2023-09-30T12:42:39.013Z,6.72
2023-09-30T12:43:43.608Z,6.15
2023-09-30T12:44:48.017Z,5.68
2023-09-30T12:45:51.555Z,5.50
2023-09-30T12:46:56.930Z,6.20
2023-09-30T12:48:00.500Z,5.95
2023-09-30T12:49:10.704Z,6.30
2023-09-30T12:50:14.173Z,5.57
2023-09-30T12:51:17.799Z,5.25
2023-09-30T12:52:22.345Z,5.80
2023-09-30T12:53:25.955Z,6.13
2023-09-30T12:54:29.552Z,5.97
2023-09-30T12:55:33.204Z,5.45
2023-09-30T12:56:36.966Z,5.05
2023-09-30T12:57:40.770Z,5.82
2023-09-30T12:58:44.041Z,5.72
2023-09-30T13:00:29.124Z,5.55
2023-09-30T13:01:36.102Z,5.65
2023-09-30T13:02:40.055Z,4.85
2023-09-30T13:03:43.365Z,5.60
2023-09-30T13:04:47.505Z,5.10
2023-09-30T13:05:52.006Z,6.55
2023-09-30T13:06:55.690Z,5.75
2023-09-30T13:07:59.249Z,5.40
2023-09-30T13:09:10.602Z,5.13
2023-09-30T13:10:14.512Z,5.38
2023-09-30T13:11:17.821Z,4.85
2023-09-30T13:12:21.040Z,4.55
2023-09-30T13:13:24.437Z,5.88
2023-09-30T13:14:29.518Z,4.93
2023-09-30T13:15:34.643Z,4.95
2023-09-30T13:16:37.817Z,4.95
2023-09-30T13:17:41.075Z,5.25
2023-09-30T13:18:44.433Z,5.82
2023-09-30T13:19:48.077Z,4.85
2023-09-30T13:20:53.505Z,4.95
2023-09-30T13:21:57.142Z,5.20
2023-09-30T13:23:00.339Z,4.60
2023-09-30T13:24:03.657Z,5.10
2023-09-30T13:25:08.343Z,5.15
2023-09-30T13:26:11.719Z,4.82
2023-09-30T13:27:17.223Z,4.95
2023-09-30T13:28:21.293Z,5.03
2023-09-30T13:29:25.205Z,5.10
2023-09-30T13:30:28.536Z,5.28
2023-09-30T13:31:32.317Z,5.55
2023-09-30T13:32:39.093Z,5.93
2023-09-30T13:34:09.170Z,5.85
2023-09-30T13:38:35.701Z,5.25
2023-09-30T13:39:39.659Z,4.78
2023-09-30T13:40:43.271Z,4.40
2023-09-30T13:41:48.412Z,5.00
2023-09-30T13:42:51.800Z,4.25
2023-09-30T13:43:56.189Z,4.75
2023-09-30T13:44:59.544Z,4.45
2023-09-30T13:46:08.410Z,5.40
2023-09-30T13:47:12.227Z,5.22
2023-09-30T13:48:15.426Z,5.45
2023-09-30T13:49:19.244Z,5.40
2023-09-30T13:50:22.597Z,4.57
2023-09-30T13:51:25.945Z,3.70
2023-09-30T13:52:29.213Z,4.75
2023-09-30T13:53:32.546Z,5.03
2023-09-30T13:54:35.802Z,4.55
2023-09-30T13:55:42.028Z,5.63
2023-09-30T13:56:45.934Z,4.40
2023-09-30T13:57:50.065Z,5.25
2023-09-30T13:58:53.604Z,4.82
2023-09-30T13:59:57.319Z,4.47
2023-09-30T14:01:00.595Z,4.57
2023-09-30T14:02:04.938Z,4.60
2023-09-30T14:03:09.492Z,4.25
2023-09-30T14:04:13.267Z,5.03
2023-09-30T14:05:16.749Z,4.80
2023-09-30T14:06:20.053Z,4.70
2023-09-30T14:07:23.412Z,4.30
2023-09-30T14:08:26.805Z,5.05
2023-09-30T14:09:36.225Z,4.55
2023-09-30T14:10:40.380Z,5.00
2023-09-30T14:11:43.560Z,4.18
2023-09-30T14:12:46.948Z,4.55
2023-09-30T14:13:50.622Z,4.30
2023-09-30T14:14:53.958Z,4.80
2023-09-30T14:15:57.724Z,4.32
2023-09-30T14:17:01.810Z,4.18
2023-09-30T14:18:05.839Z,4.50
2023-09-30T14:19:09.467Z,4.50
2023-09-30T14:20:13.741Z,5.20
2023-09-30T14:21:17.197Z,4.38
2023-09-30T14:22:20.481Z,5.35
2023-09-30T14:23:25.129Z,4.45
2023-09-30T14:24:28.551Z,4.72
2023-09-30T14:25:32.029Z,5.43
2023-09-30T14:26:35.326Z,4.95
2023-09-30T14:27:38.816Z,4.43
2023-09-30T14:28:41.975Z,5.43
2023-09-30T14:29:47.020Z,5.40
2023-09-30T14:30:51.590Z,4.20